sensor_id;sensor_type;location;lat;lon;timestamp;temperature;humidity
1996;DHT22;38556;47.068;15.408;2023-09-07T00:00:12;21.90;90.50
1996;DHT22;38556;47.068;15.408;2023-09-07T00:02:40;22.00;90.30
1996;DHT22;38556;47.068;15.408;2023-09-07T00:05:08;22.10;90.20
1996;DHT22;38556;47.068;15.408;2023-09-07T00:07:36;22.30;90.00
1996;DHT22;38556;47.068;15.408;2023-09-07T00:10:05;22.40;89.80
1996;DHT22;38556;47.068;15.408;2023-09-07T00:12:33;22.40;89.70
1996;DHT22;38556;47.068;15.408;2023-09-07T00:17:28;22.50;89.60
1996;DHT22;38556;47.068;15.408;2023-09-07T00:19:56;22.50;89.50
1996;DHT22;38556;47.068;15.408;2023-09-07T00:22:24;22.50;89.30
1996;DHT22;38556;47.068;15.408;2023-09-07T00:24:53;22.50;89.10
1996;DHT22;38556;47.068;15.408;2023-09-07T00:27:20;22.50;89.30
1996;DHT22;38556;47.068;15.408;2023-09-07T00:29:48;22.50;89.30
1996;DHT22;38556;47.068;15.408;2023-09-07T00:32:15;22.50;89.20
1996;DHT22;38556;47.068;15.408;2023-09-07T00:34:42;22.50;89.30
1996;DHT22;38556;47.068;15.408;2023-09-07T00:37:09;22.50;89.60
1996;DHT22;38556;47.068;15.408;2023-09-07T00:39:37;22.40;89.60
1996;DHT22;38556;47.068;15.408;2023-09-07T00:44:33;22.30;89.80
1996;DHT22;38556;47.068;15.408;2023-09-07T00:54:24;22.20;89.50
1996;DHT22;38556;47.068;15.408;2023-09-07T00:59:20;22.10;89.60
1996;DHT22;38556;47.068;15.408;2023-09-07T01:04:15;22.10;89.60
1996;DHT22;38556;47.068;15.408;2023-09-07T01:06:47;22.10;90.00
1996;DHT22;38556;47.068;15.408;2023-09-07T01:09:19;22.10;89.80
1996;DHT22;38556;47.068;15.408;2023-09-07T01:14:16;22.10;90.00
1996;DHT22;38556;47.068;15.408;2023-09-07T01:16:44;22.10;89.80
1996;DHT22;38556;47.068;15.408;2023-09-07T01:19:12;22.00;89.70
1996;DHT22;38556;47.068;15.408;2023-09-07T01:21:41;22.00;89.60
1996;DHT22;38556;47.068;15.408;2023-09-07T01:24:09;22.00;89.70
1996;DHT22;38556;47.068;15.408;2023-09-07T01:26:37;22.00;89.80
1996;DHT22;38556;47.068;15.408;2023-09-07T01:29:05;22.00;89.90
1996;DHT22;38556;47.068;15.408;2023-09-07T01:31:34;22.00;89.80
1996;DHT22;38556;47.068;15.408;2023-09-07T01:34:03;22.00;90.10
1996;DHT22;38556;47.068;15.408;2023-09-07T01:36:30;21.90;90.10
1996;DHT22;38556;47.068;15.408;2023-09-07T01:38:59;21.90;90.00
1996;DHT22;38556;47.068;15.408;2023-09-07T01:43:54;21.90;89.90
1996;DHT22;38556;47.068;15.408;2023-09-07T01:46:22;21.90;89.80
1996;DHT22;38556;47.068;15.408;2023-09-07T01:51:17;21.90;89.80
1996;DHT22;38556;47.068;15.408;2023-09-07T01:53:47;21.90;89.80
1996;DHT22;38556;47.068;15.408;2023-09-07T01:56:16;21.80;89.80
1996;DHT22;38556;47.068;15.408;2023-09-07T02:01:23;21.70;89.60
1996;DHT22;38556;47.068;15.408;2023-09-07T02:03:51;21.70;90.00
1996;DHT22;38556;47.068;15.408;2023-09-07T02:06:19;21.70;89.90
1996;DHT22;38556;47.068;15.408;2023-09-07T02:08:46;21.70;89.90
1996;DHT22;38556;47.068;15.408;2023-09-07T02:13:43;21.70;89.80
1996;DHT22;38556;47.068;15.408;2023-09-07T02:16:10;21.70;90.00
1996;DHT22;38556;47.068;15.408;2023-09-07T02:21:09;21.60;89.70
1996;DHT22;38556;47.068;15.408;2023-09-07T02:26:04;21.60;90.00
1996;DHT22;38556;47.068;15.408;2023-09-07T02:28:31;21.50;90.00
1996;DHT22;38556;47.068;15.408;2023-09-07T02:33:32;21.40;90.30
1996;DHT22;38556;47.068;15.408;2023-09-07T02:38:27;21.40;90.20
1996;DHT22;38556;47.068;15.408;2023-09-07T02:40:54;21.40;90.40
1996;DHT22;38556;47.068;15.408;2023-09-07T02:43:22;21.50;90.30
1996;DHT22;38556;47.068;15.408;2023-09-07T02:45:49;21.50;90.50
1996;DHT22;38556;47.068;15.408;2023-09-07T02:48:18;21.50;90.30
1996;DHT22;38556;47.068;15.408;2023-09-07T02:50:48;21.50;90.20
1996;DHT22;38556;47.068;15.408;2023-09-07T02:58:11;21.60;90.30
1996;DHT22;38556;47.068;15.408;2023-09-07T03:00:41;21.50;90.30
1996;DHT22;38556;47.068;15.408;2023-09-07T03:03:10;21.50;90.50
1996;DHT22;38556;47.068;15.408;2023-09-07T03:05:40;21.30;90.70
1996;DHT22;38556;47.068;15.408;2023-09-07T03:08:07;21.30;90.80
1996;DHT22;38556;47.068;15.408;2023-09-07T03:10:35;21.20;90.70
1996;DHT22;38556;47.068;15.408;2023-09-07T03:13:03;21.20;90.80
1996;DHT22;38556;47.068;15.408;2023-09-07T03:15:32;21.30;90.60
1996;DHT22;38556;47.068;15.408;2023-09-07T03:17:59;21.40;90.50
1996;DHT22;38556;47.068;15.408;2023-09-07T03:22:55;21.50;90.20
1996;DHT22;38556;47.068;15.408;2023-09-07T03:25:23;21.60;89.90
1996;DHT22;38556;47.068;15.408;2023-09-07T03:30:18;21.60;89.90
1996;DHT22;38556;47.068;15.408;2023-09-07T03:32:45;21.50;89.70
1996;DHT22;38556;47.068;15.408;2023-09-07T03:35:13;21.50;89.80
1996;DHT22;38556;47.068;15.408;2023-09-07T03:37:44;21.50;89.60
1996;DHT22;38556;47.068;15.408;2023-09-07T03:40:13;21.50;89.80
1996;DHT22;38556;47.068;15.408;2023-09-07T03:45:09;21.40;90.00
1996;DHT22;38556;47.068;15.408;2023-09-07T03:47:37;21.30;89.90
1996;DHT22;38556;47.068;15.408;2023-09-07T03:50:05;21.30;90.00
1996;DHT22;38556;47.068;15.408;2023-09-07T03:52:33;21.30;90.10
1996;DHT22;38556;47.068;15.408;2023-09-07T03:55:00;21.30;90.00
1996;DHT22;38556;47.068;15.408;2023-09-07T03:57:29;21.30;90.00
1996;DHT22;38556;47.068;15.408;2023-09-07T03:59:57;21.20;90.10
1996;DHT22;38556;47.068;15.408;2023-09-07T04:02:24;21.20;90.20
1996;DHT22;38556;47.068;15.408;2023-09-07T04:04:53;21.10;90.10
1996;DHT22;38556;47.068;15.408;2023-09-07T04:07:21;21.10;90.20
1996;DHT22;38556;47.068;15.408;2023-09-07T04:09:50;21.10;90.20
1996;DHT22;38556;47.068;15.408;2023-09-07T04:12:17;21.10;90.10
1996;DHT22;38556;47.068;15.408;2023-09-07T04:14:46;21.10;90.10
1996;DHT22;38556;47.068;15.408;2023-09-07T04:22:10;21.00;90.10
1996;DHT22;38556;47.068;15.408;2023-09-07T04:24:37;21.00;90.10
1996;DHT22;38556;47.068;15.408;2023-09-07T04:27:06;21.00;90.10
1996;DHT22;38556;47.068;15.408;2023-09-07T04:29:33;20.90;90.20
1996;DHT22;38556;47.068;15.408;2023-09-07T04:32:02;20.90;90.30
1996;DHT22;38556;47.068;15.408;2023-09-07T04:36:57;20.90;90.30
1996;DHT22;38556;47.068;15.408;2023-09-07T04:44:20;20.90;90.50
1996;DHT22;38556;47.068;15.408;2023-09-07T04:46:47;21.00;90.50
1996;DHT22;38556;47.068;15.408;2023-09-07T04:49:17;21.00;90.60
1996;DHT22;38556;47.068;15.408;2023-09-07T04:59:09;21.00;90.60
1996;DHT22;38556;47.068;15.408;2023-09-07T05:04:04;21.00;90.40
1996;DHT22;38556;47.068;15.408;2023-09-07T05:06:33;21.10;90.30
1996;DHT22;38556;47.068;15.408;2023-09-07T05:09:03;21.20;90.20
1996;DHT22;38556;47.068;15.408;2023-09-07T05:14:01;21.20;90.40
1996;DHT22;38556;47.068;15.408;2023-09-07T05:21:23;21.30;90.50
1996;DHT22;38556;47.068;15.408;2023-09-07T05:23:52;21.30;90.50
1996;DHT22;38556;47.068;15.408;2023-09-07T05:26:22;21.40;90.60
1996;DHT22;38556;47.068;15.408;2023-09-07T05:33:47;21.50;90.70
1996;DHT22;38556;47.068;15.408;2023-09-07T05:36:14;21.60;90.70
1996;DHT22;38556;47.068;15.408;2023-09-07T05:41:10;21.70;90.70
1996;DHT22;38556;47.068;15.408;2023-09-07T05:46:05;21.80;90.70
1996;DHT22;38556;47.068;15.408;2023-09-07T05:51:00;21.90;90.80
1996;DHT22;38556;47.068;15.408;2023-09-07T05:58:24;22.10;90.70
1996;DHT22;38556;47.068;15.408;2023-09-07T06:00:51;21.80;90.90
1996;DHT22;38556;47.068;15.408;2023-09-07T06:05:46;21.50;91.70
1996;DHT22;38556;47.068;15.408;2023-09-07T06:10:40;21.20;92.00
1996;DHT22;38556;47.068;15.408;2023-09-07T06:13:08;21.40;92.00
1996;DHT22;38556;47.068;15.408;2023-09-07T06:15:36;21.60;92.00
1996;DHT22;38556;47.068;15.408;2023-09-07T06:18:04;21.70;92.00
1996;DHT22;38556;47.068;15.408;2023-09-07T06:22:59;22.00;91.90
1996;DHT22;38556;47.068;15.408;2023-09-07T06:27:54;22.60;91.20
1996;DHT22;38556;47.068;15.408;2023-09-07T06:30:22;22.80;90.90
1996;DHT22;38556;47.068;15.408;2023-09-07T06:32:50;23.00;90.70
1996;DHT22;38556;47.068;15.408;2023-09-07T06:35:19;23.10;90.40
1996;DHT22;38556;47.068;15.408;2023-09-07T06:37:46;23.20;90.40
1996;DHT22;38556;47.068;15.408;2023-09-07T06:40:13;23.30;90.30
1996;DHT22;38556;47.068;15.408;2023-09-07T06:42:41;23.40;90.30
1996;DHT22;38556;47.068;15.408;2023-09-07T06:45:09;23.50;90.00
1996;DHT22;38556;47.068;15.408;2023-09-07T06:47:36;23.60;89.90
1996;DHT22;38556;47.068;15.408;2023-09-07T06:50:06;23.70;89.50
1996;DHT22;38556;47.068;15.408;2023-09-07T06:52:33;23.80;88.90
1996;DHT22;38556;47.068;15.408;2023-09-07T06:57:28;24.00;88.40
1996;DHT22;38556;47.068;15.408;2023-09-07T06:59:56;24.10;88.20
1996;DHT22;38556;47.068;15.408;2023-09-07T07:04:50;24.30;87.80
1996;DHT22;38556;47.068;15.408;2023-09-07T07:07:19;29.60;91.00
1996;DHT22;38556;47.068;15.408;2023-09-07T07:09:46;23.90;86.80
1996;DHT22;38556;47.068;15.408;2023-09-07T07:12:14;23.30;89.30
1996;DHT22;38556;47.068;15.408;2023-09-07T07:14:41;23.70;89.10
1996;DHT22;38556;47.068;15.408;2023-09-07T07:17:08;24.00;88.40
1996;DHT22;38556;47.068;15.408;2023-09-07T07:19:36;24.30;87.90
1996;DHT22;38556;47.068;15.408;2023-09-07T07:22:03;24.10;87.50
1996;DHT22;38556;47.068;15.408;2023-09-07T07:24:32;24.10;88.10
1996;DHT22;38556;47.068;15.408;2023-09-07T07:26:59;24.50;87.70
1996;DHT22;38556;47.068;15.408;2023-09-07T07:29:27;24.70;86.80
1996;DHT22;38556;47.068;15.408;2023-09-07T07:31:54;24.80;86.70
1996;DHT22;38556;47.068;15.408;2023-09-07T07:34:22;24.90;86.20
1996;DHT22;38556;47.068;15.408;2023-09-07T07:36:49;25.00;86.10
1996;DHT22;38556;47.068;15.408;2023-09-07T07:39:16;25.10;85.60
1996;DHT22;38556;47.068;15.408;2023-09-07T07:41:44;25.20;84.70
1996;DHT22;38556;47.068;15.408;2023-09-07T07:44:13;25.40;84.40
1996;DHT22;38556;47.068;15.408;2023-09-07T07:46:40;25.50;84.40
1996;DHT22;38556;47.068;15.408;2023-09-07T07:49:07;24.60;84.70
1996;DHT22;38556;47.068;15.408;2023-09-07T07:51:34;24.40;84.90
1996;DHT22;38556;47.068;15.408;2023-09-07T07:54:02;24.70;84.10
1996;DHT22;38556;47.068;15.408;2023-09-07T07:58:59;24.80;84.00
1996;DHT22;38556;47.068;15.408;2023-09-07T08:01:26;24.90;83.90
1996;DHT22;38556;47.068;15.408;2023-09-07T08:03:55;24.90;83.70
1996;DHT22;38556;47.068;15.408;2023-09-07T08:08:50;25.60;81.60
1996;DHT22;38556;47.068;15.408;2023-09-07T08:16:16;26.00;81.90
1996;DHT22;38556;47.068;15.408;2023-09-07T08:18:44;25.10;82.00
1996;DHT22;38556;47.068;15.408;2023-09-07T08:23:39;25.10;81.50
1996;DHT22;38556;47.068;15.408;2023-09-07T08:26:06;25.10;83.10
1996;DHT22;38556;47.068;15.408;2023-09-07T08:28:35;25.30;81.80
1996;DHT22;38556;47.068;15.408;2023-09-07T08:33:32;25.00;83.10
1996;DHT22;38556;47.068;15.408;2023-09-07T08:36:06;25.10;82.50
1996;DHT22;38556;47.068;15.408;2023-09-07T08:38:35;24.90;83.50
1996;DHT22;38556;47.068;15.408;2023-09-07T08:41:03;25.20;83.90
1996;DHT22;38556;47.068;15.408;2023-09-07T08:43:33;25.10;82.00
1996;DHT22;38556;47.068;15.408;2023-09-07T08:46:09;24.60;82.90
1996;DHT22;38556;47.068;15.408;2023-09-07T08:48:39;24.80;83.40
1996;DHT22;38556;47.068;15.408;2023-09-07T08:51:07;24.70;83.40
1996;DHT22;38556;47.068;15.408;2023-09-07T08:53:35;25.20;83.20
1996;DHT22;38556;47.068;15.408;2023-09-07T08:56:04;24.90;82.30
1996;DHT22;38556;47.068;15.408;2023-09-07T08:58:35;25.20;82.30
1996;DHT22;38556;47.068;15.408;2023-09-07T09:03:31;24.80;81.70
1996;DHT22;38556;47.068;15.408;2023-09-07T09:06:02;24.30;81.50
1996;DHT22;38556;47.068;15.408;2023-09-07T09:08:29;24.40;82.00
1996;DHT22;38556;47.068;15.408;2023-09-07T09:11:01;24.90;80.90
1996;DHT22;38556;47.068;15.408;2023-09-07T09:15:59;20.20;73.40
1996;DHT22;38556;47.068;15.408;2023-09-07T09:18:27;24.40;80.60
1996;DHT22;38556;47.068;15.408;2023-09-07T09:20:55;24.20;80.90
1996;DHT22;38556;47.068;15.408;2023-09-07T09:25:59;24.70;80.60
1996;DHT22;38556;47.068;15.408;2023-09-07T09:28:26;24.60;79.00
1996;DHT22;38556;47.068;15.408;2023-09-07T09:30:55;24.30;78.20
1996;DHT22;38556;47.068;15.408;2023-09-07T09:33:22;24.00;78.10
1996;DHT22;38556;47.068;15.408;2023-09-07T09:38:17;23.80;78.70
1996;DHT22;38556;47.068;15.408;2023-09-07T09:40:46;24.00;79.60
1996;DHT22;38556;47.068;15.408;2023-09-07T09:43:13;24.40;79.30
1996;DHT22;38556;47.068;15.408;2023-09-07T09:45:41;24.70;74.60
1996;DHT22;38556;47.068;15.408;2023-09-07T09:48:09;25.20;74.80
1996;DHT22;38556;47.068;15.408;2023-09-07T09:50:37;25.30;75.90
1996;DHT22;38556;47.068;15.408;2023-09-07T09:53:05;25.30;76.90
1996;DHT22;38556;47.068;15.408;2023-09-07T09:55:34;24.80;77.80
1996;DHT22;38556;47.068;15.408;2023-09-07T09:58:03;24.70;76.90
1996;DHT22;38556;47.068;15.408;2023-09-07T10:03:08;24.50;76.50
1996;DHT22;38556;47.068;15.408;2023-09-07T10:05:38;24.60;74.10
1996;DHT22;38556;47.068;15.408;2023-09-07T10:08:09;24.80;74.70
1996;DHT22;38556;47.068;15.408;2023-09-07T10:10:41;24.30;73.90
1996;DHT22;38556;47.068;15.408;2023-09-07T10:13:13;24.50;76.30
1996;DHT22;38556;47.068;15.408;2023-09-07T10:15:41;24.40;75.10
1996;DHT22;38556;47.068;15.408;2023-09-07T10:18:10;24.40;74.40
1996;DHT22;38556;47.068;15.408;2023-09-07T10:20:59;24.70;74.50
1996;DHT22;38556;47.068;15.408;2023-09-07T10:23:38;25.20;74.30
1996;DHT22;38556;47.068;15.408;2023-09-07T10:26:11;24.80;74.50
1996;DHT22;38556;47.068;15.408;2023-09-07T10:28:40;25.00;74.20
1996;DHT22;38556;47.068;15.408;2023-09-07T10:31:14;24.80;73.20
1996;DHT22;38556;47.068;15.408;2023-09-07T10:36:20;25.20;72.20
1996;DHT22;38556;47.068;15.408;2023-09-07T10:38:48;25.30;72.40
1996;DHT22;38556;47.068;15.408;2023-09-07T10:43:50;25.00;68.60
1996;DHT22;38556;47.068;15.408;2023-09-07T10:46:19;24.60;69.50
1996;DHT22;38556;47.068;15.408;2023-09-07T10:48:50;24.80;72.10
1996;DHT22;38556;47.068;15.408;2023-09-07T10:51:18;25.10;70.90
1996;DHT22;38556;47.068;15.408;2023-09-07T10:53:45;25.30;70.10
1996;DHT22;38556;47.068;15.408;2023-09-07T10:56:13;25.30;69.00
1996;DHT22;38556;47.068;15.408;2023-09-07T10:58:40;25.40;71.50
1996;DHT22;38556;47.068;15.408;2023-09-07T11:01:10;25.30;71.70
1996;DHT22;38556;47.068;15.408;2023-09-07T11:03:37;25.10;70.70
1996;DHT22;38556;47.068;15.408;2023-09-07T11:06:09;25.40;69.80
1996;DHT22;38556;47.068;15.408;2023-09-07T11:08:37;25.70;68.70
1996;DHT22;38556;47.068;15.408;2023-09-07T11:11:05;25.70;69.70
1996;DHT22;38556;47.068;15.408;2023-09-07T11:13:32;25.50;69.00
1996;DHT22;38556;47.068;15.408;2023-09-07T11:16:01;25.40;68.70
1996;DHT22;38556;47.068;15.408;2023-09-07T11:18:30;25.30;68.50
1996;DHT22;38556;47.068;15.408;2023-09-07T11:23:29;25.90;69.00
1996;DHT22;38556;47.068;15.408;2023-09-07T11:25:57;25.70;67.30
1996;DHT22;38556;47.068;15.408;2023-09-07T11:30:53;25.70;68.10
1996;DHT22;38556;47.068;15.408;2023-09-07T11:33:22;25.50;71.20
1996;DHT22;38556;47.068;15.408;2023-09-07T11:35:51;25.50;72.40
1996;DHT22;38556;47.068;15.408;2023-09-07T11:38:20;25.50;73.30
1996;DHT22;38556;47.068;15.408;2023-09-07T11:40:48;25.50;70.60
1996;DHT22;38556;47.068;15.408;2023-09-07T11:43:16;25.30;70.70
1996;DHT22;38556;47.068;15.408;2023-09-07T11:45:45;25.40;72.60
1996;DHT22;38556;47.068;15.408;2023-09-07T11:48:13;25.70;71.60
1996;DHT22;38556;47.068;15.408;2023-09-07T11:50:41;25.90;72.90
1996;DHT22;38556;47.068;15.408;2023-09-07T11:53:09;25.80;71.60
1996;DHT22;38556;47.068;15.408;2023-09-07T11:55:37;25.80;70.80
1996;DHT22;38556;47.068;15.408;2023-09-07T11:58:06;25.60;69.90
1996;DHT22;38556;47.068;15.408;2023-09-07T12:00:33;25.60;69.90
1996;DHT22;38556;47.068;15.408;2023-09-07T12:03:00;25.70;70.10
1996;DHT22;38556;47.068;15.408;2023-09-07T12:05:28;25.70;71.30
1996;DHT22;38556;47.068;15.408;2023-09-07T12:10:25;25.70;70.70
1996;DHT22;38556;47.068;15.408;2023-09-07T12:12:52;26.10;70.70
1996;DHT22;38556;47.068;15.408;2023-09-07T12:15:20;26.40;70.70
1996;DHT22;38556;47.068;15.408;2023-09-07T12:17:47;26.20;69.50
1996;DHT22;38556;47.068;15.408;2023-09-07T12:20:20;26.20;69.70
1996;DHT22;38556;47.068;15.408;2023-09-07T12:22:47;26.40;69.20
1996;DHT22;38556;47.068;15.408;2023-09-07T12:25:15;26.40;69.30
1996;DHT22;38556;47.068;15.408;2023-09-07T12:27:43;26.50;69.10
1996;DHT22;38556;47.068;15.408;2023-09-07T12:30:13;26.50;70.10
1996;DHT22;38556;47.068;15.408;2023-09-07T12:32:40;26.40;69.60
1996;DHT22;38556;47.068;15.408;2023-09-07T12:35:08;26.40;69.60
1996;DHT22;38556;47.068;15.408;2023-09-07T12:37:35;26.50;69.50
1996;DHT22;38556;47.068;15.408;2023-09-07T12:40:04;26.60;67.90
1996;DHT22;38556;47.068;15.408;2023-09-07T12:42:40;27.10;67.40
1996;DHT22;38556;47.068;15.408;2023-09-07T12:45:10;27.10;66.70
1996;DHT22;38556;47.068;15.408;2023-09-07T12:47:38;27.20;66.50
1996;DHT22;38556;47.068;15.408;2023-09-07T12:50:07;27.70;66.20
1996;DHT22;38556;47.068;15.408;2023-09-07T12:52:41;27.60;67.20
1996;DHT22;38556;47.068;15.408;2023-09-07T12:55:08;27.70;67.90
1996;DHT22;38556;47.068;15.408;2023-09-07T12:57:36;27.70;67.50
1996;DHT22;38556;47.068;15.408;2023-09-07T13:00:04;27.70;67.00
1996;DHT22;38556;47.068;15.408;2023-09-07T13:02:33;27.60;66.10
1996;DHT22;38556;47.068;15.408;2023-09-07T13:05:00;27.70;66.20
1996;DHT22;38556;47.068;15.408;2023-09-07T13:07:31;27.50;65.80
1996;DHT22;38556;47.068;15.408;2023-09-07T13:10:00;27.30;67.00
1996;DHT22;38556;47.068;15.408;2023-09-07T13:12:28;27.40;66.40
1996;DHT22;38556;47.068;15.408;2023-09-07T13:14:55;27.60;67.00
1996;DHT22;38556;47.068;15.408;2023-09-07T13:17:23;27.80;66.80
1996;DHT22;38556;47.068;15.408;2023-09-07T13:19:52;28.10;66.50
1996;DHT22;38556;47.068;15.408;2023-09-07T13:22:19;27.70;64.20
1996;DHT22;38556;47.068;15.408;2023-09-07T13:24:46;27.70;65.20
1996;DHT22;38556;47.068;15.408;2023-09-07T13:27:15;31.50;68.00
1996;DHT22;38556;47.068;15.408;2023-09-07T13:29:42;27.90;64.70
1996;DHT22;38556;47.068;15.408;2023-09-07T13:32:10;27.70;64.00
1996;DHT22;38556;47.068;15.408;2023-09-07T13:34:37;27.90;64.70
1996;DHT22;38556;47.068;15.408;2023-09-07T13:37:06;28.00;64.70
1996;DHT22;38556;47.068;15.408;2023-09-07T13:42:01;28.30;63.80
1996;DHT22;38556;47.068;15.408;2023-09-07T13:44:28;28.20;63.60
1996;DHT22;38556;47.068;15.408;2023-09-07T13:46:55;28.30;63.90
1996;DHT22;38556;47.068;15.408;2023-09-07T13:49:22;28.50;62.60
1996;DHT22;38556;47.068;15.408;2023-09-07T13:51:50;28.50;62.90
1996;DHT22;38556;47.068;15.408;2023-09-07T13:54:19;28.60;63.70
1996;DHT22;38556;47.068;15.408;2023-09-07T13:56:47;28.70;63.70
1996;DHT22;38556;47.068;15.408;2023-09-07T13:59:14;28.80;63.50
1996;DHT22;38556;47.068;15.408;2023-09-07T14:01:41;28.60;62.20
1996;DHT22;38556;47.068;15.408;2023-09-07T14:04:09;28.60;62.80
1996;DHT22;38556;47.068;15.408;2023-09-07T14:06:36;29.20;63.50
1996;DHT22;38556;47.068;15.408;2023-09-07T14:09:03;29.20;62.90
1996;DHT22;38556;47.068;15.408;2023-09-07T14:11:34;29.40;63.00
1996;DHT22;38556;47.068;15.408;2023-09-07T14:14:01;29.20;62.10
1996;DHT22;38556;47.068;15.408;2023-09-07T14:16:29;29.10;62.80
1996;DHT22;38556;47.068;15.408;2023-09-07T14:18:56;29.50;64.20
1996;DHT22;38556;47.068;15.408;2023-09-07T14:21:23;29.70;64.30
1996;DHT22;38556;47.068;15.408;2023-09-07T14:23:50;30.20;63.60
1996;DHT22;38556;47.068;15.408;2023-09-07T14:26:19;30.40;61.20
1996;DHT22;38556;47.068;15.408;2023-09-07T14:28:47;30.50;61.50
1996;DHT22;38556;47.068;15.408;2023-09-07T14:31:15;30.40;61.50
1996;DHT22;38556;47.068;15.408;2023-09-07T14:33:42;30.50;61.30
1996;DHT22;38556;47.068;15.408;2023-09-07T14:36:09;30.50;61.70
1996;DHT22;38556;47.068;15.408;2023-09-07T14:38:37;30.60;61.60
1996;DHT22;38556;47.068;15.408;2023-09-07T14:41:07;30.60;59.40
1996;DHT22;38556;47.068;15.408;2023-09-07T14:43:37;29.90;59.50
1996;DHT22;38556;47.068;15.408;2023-09-07T14:46:06;30.40;61.10
1996;DHT22;38556;47.068;15.408;2023-09-07T14:48:33;30.80;60.90
1996;DHT22;38556;47.068;15.408;2023-09-07T14:51:01;31.10;59.20
1996;DHT22;38556;47.068;15.408;2023-09-07T14:53:28;31.00;59.90
1996;DHT22;38556;47.068;15.408;2023-09-07T14:55:57;31.00;59.40
1996;DHT22;38556;47.068;15.408;2023-09-07T14:58:24;31.00;59.20
1996;DHT22;38556;47.068;15.408;2023-09-07T15:00:52;30.90;59.70
1996;DHT22;38556;47.068;15.408;2023-09-07T15:03:21;30.90;59.60
1996;DHT22;38556;47.068;15.408;2023-09-07T15:05:50;31.40;59.70
1996;DHT22;38556;47.068;15.408;2023-09-07T15:08:18;31.30;57.70
1996;DHT22;38556;47.068;15.408;2023-09-07T15:10:46;31.40;59.40
1996;DHT22;38556;47.068;15.408;2023-09-07T15:13:15;31.30;59.00
1996;DHT22;38556;47.068;15.408;2023-09-07T15:15:43;31.50;57.70
1996;DHT22;38556;47.068;15.408;2023-09-07T15:18:11;31.40;58.50
1996;DHT22;38556;47.068;15.408;2023-09-07T15:20:41;31.80;58.30
1996;DHT22;38556;47.068;15.408;2023-09-07T15:23:09;31.90;58.30
1996;DHT22;38556;47.068;15.408;2023-09-07T15:25:37;31.80;57.40
1996;DHT22;38556;47.068;15.408;2023-09-07T15:28:06;31.70;57.60
1996;DHT22;38556;47.068;15.408;2023-09-07T15:30:36;31.80;57.20
1996;DHT22;38556;47.068;15.408;2023-09-07T15:33:05;31.90;57.80
1996;DHT22;38556;47.068;15.408;2023-09-07T15:35:34;32.20;57.60
1996;DHT22;38556;47.068;15.408;2023-09-07T15:38:04;32.40;57.40
1996;DHT22;38556;47.068;15.408;2023-09-07T15:40:33;32.40;57.80
1996;DHT22;38556;47.068;15.408;2023-09-07T15:43:05;32.60;57.10
1996;DHT22;38556;47.068;15.408;2023-09-07T15:45:39;32.90;57.30
1996;DHT22;38556;47.068;15.408;2023-09-07T15:48:12;33.20;56.80
1996;DHT22;38556;47.068;15.408;2023-09-07T15:50:42;33.20;57.20
1996;DHT22;38556;47.068;15.408;2023-09-07T15:53:12;33.60;56.60
1996;DHT22;38556;47.068;15.408;2023-09-07T15:55:42;33.80;56.30
1996;DHT22;38556;47.068;15.408;2023-09-07T15:58:11;33.80;56.50
1996;DHT22;38556;47.068;15.408;2023-09-07T16:00:42;33.90;55.90
1996;DHT22;38556;47.068;15.408;2023-09-07T16:03:12;34.00;55.00
1996;DHT22;38556;47.068;15.408;2023-09-07T16:05:42;34.20;56.60
1996;DHT22;38556;47.068;15.408;2023-09-07T16:08:16;34.20;56.40
1996;DHT22;38556;47.068;15.408;2023-09-07T16:10:46;34.40;56.10
1996;DHT22;38556;47.068;15.408;2023-09-07T16:13:18;34.50;55.20
1996;DHT22;38556;47.068;15.408;2023-09-07T16:15:47;33.80;54.90
1996;DHT22;38556;47.068;15.408;2023-09-07T16:18:16;33.60;56.70
1996;DHT22;38556;47.068;15.408;2023-09-07T16:20:49;32.70;57.60
1996;DHT22;38556;47.068;15.408;2023-09-07T16:23:20;32.60;57.60
1996;DHT22;38556;47.068;15.408;2023-09-07T16:25:50;32.30;58.80
1996;DHT22;38556;47.068;15.408;2023-09-07T16:28:19;33.20;58.40
1996;DHT22;38556;47.068;15.408;2023-09-07T16:30:51;34.50;57.60
1996;DHT22;38556;47.068;15.408;2023-09-07T16:33:19;36.10;56.00
1996;DHT22;38556;47.068;15.408;2023-09-07T16:35:49;37.40;54.80
1996;DHT22;38556;47.068;15.408;2023-09-07T16:38:19;38.20;51.50
1996;DHT22;38556;47.068;15.408;2023-09-07T16:40:49;37.90;52.30
1996;DHT22;38556;47.068;15.408;2023-09-07T16:43:18;37.70;52.60
1996;DHT22;38556;47.068;15.408;2023-09-07T16:45:57;36.90;52.70
1996;DHT22;38556;47.068;15.408;2023-09-07T16:48:26;36.60;52.00
1996;DHT22;38556;47.068;15.408;2023-09-07T16:50:56;35.30;53.60
1996;DHT22;38556;47.068;15.408;2023-09-07T16:53:27;34.90;54.20
1996;DHT22;38556;47.068;15.408;2023-09-07T16:55:57;34.90;54.60
1996;DHT22;38556;47.068;15.408;2023-09-07T16:58:26;34.10;55.00
1996;DHT22;38556;47.068;15.408;2023-09-07T17:00:55;34.10;55.00
1996;DHT22;38556;47.068;15.408;2023-09-07T17:03:24;33.40;55.70
1996;DHT22;38556;47.068;15.408;2023-09-07T17:05:53;33.00;56.10
1996;DHT22;38556;47.068;15.408;2023-09-07T17:08:24;32.50;56.60
1996;DHT22;38556;47.068;15.408;2023-09-07T17:10:55;31.40;57.90
1996;DHT22;38556;47.068;15.408;2023-09-07T17:13:24;31.10;58.20
1996;DHT22;38556;47.068;15.408;2023-09-07T17:15:53;31.10;58.20
1996;DHT22;38556;47.068;15.408;2023-09-07T17:18:22;30.20;59.10
1996;DHT22;38556;47.068;15.408;2023-09-07T17:20:52;30.00;59.60
1996;DHT22;38556;47.068;15.408;2023-09-07T17:23:20;29.80;60.40
1996;DHT22;38556;47.068;15.408;2023-09-07T17:28:20;28.50;63.10
1996;DHT22;38556;47.068;15.408;2023-09-07T17:30:49;28.00;64.20
1996;DHT22;38556;47.068;15.408;2023-09-07T17:33:19;28.20;63.10
1996;DHT22;38556;47.068;15.408;2023-09-07T17:35:49;28.20;63.30
1996;DHT22;38556;47.068;15.408;2023-09-07T17:38:20;27.40;66.20
1996;DHT22;38556;47.068;15.408;2023-09-07T17:40:50;27.00;66.50
1996;DHT22;38556;47.068;15.408;2023-09-07T17:43:23;26.90;67.60
1996;DHT22;38556;47.068;15.408;2023-09-07T17:45:53;26.80;67.60
1996;DHT22;38556;47.068;15.408;2023-09-07T17:48:22;26.90;68.00
1996;DHT22;38556;47.068;15.408;2023-09-07T17:50:52;26.70;67.10
1996;DHT22;38556;47.068;15.408;2023-09-07T17:53:21;23.20;65.00
1996;DHT22;38556;47.068;15.408;2023-09-07T17:55:51;26.00;69.80
1996;DHT22;38556;47.068;15.408;2023-09-07T17:58:22;26.00;70.40
1996;DHT22;38556;47.068;15.408;2023-09-07T18:00:56;26.10;70.20
1996;DHT22;38556;47.068;15.408;2023-09-07T18:03:26;26.30;69.10
1996;DHT22;38556;47.068;15.408;2023-09-07T18:06:04;26.50;69.00
1996;DHT22;38556;47.068;15.408;2023-09-07T18:08:42;26.40;69.80
1996;DHT22;38556;47.068;15.408;2023-09-07T18:11:12;25.80;71.00
1996;DHT22;38556;47.068;15.408;2023-09-07T18:13:49;25.30;72.30
1996;DHT22;38556;47.068;15.408;2023-09-07T18:16:19;24.40;75.10